createdAt,value
2018-08-12T00:00:30.042Z,83.38
2018-08-12T00:02:59.633Z,83.24
2018-08-12T00:05:28.012Z,83.30
2018-08-12T00:07:56.476Z,83.05
2018-08-12T00:10:25.796Z,83.26
2018-08-12T00:12:54.244Z,84.59
2018-08-12T00:15:23.255Z,84.17
2018-08-12T00:17:51.763Z,83.67
2018-08-12T00:20:21.589Z,84.78
2018-08-12T00:22:50.128Z,84.70
2018-08-12T00:25:19.907Z,84.04
2018-08-12T00:27:48.908Z,83.76
2018-08-12T00:30:17.975Z,83.98
2018-08-12T00:32:46.321Z,84.42
2018-08-12T00:35:16.446Z,84.46
2018-08-12T00:37:44.998Z,85.14
2018-08-12T00:40:14.690Z,85.58
2018-08-12T00:42:43.170Z,85.73
2018-08-12T00:45:14.113Z,85.29
2018-08-12T00:47:42.753Z,85.29
2018-08-12T00:50:12.196Z,85.15
2018-08-12T00:52:40.619Z,86.27
2018-08-12T00:55:11.268Z,85.31
2018-08-12T00:57:39.767Z,85.66
2018-08-12T01:00:11.711Z,85.20
2018-08-12T01:02:40.422Z,86.13
2018-08-12T01:05:10.772Z,86.00
2018-08-12T01:07:39.672Z,86.27
2018-08-12T01:10:08.754Z,86.69
2018-08-12T01:12:37.435Z,86.37
2018-08-12T01:15:13.675Z,86.11
2018-08-12T01:17:43.076Z,87.33
2018-08-12T01:20:13.683Z,87.66
2018-08-12T01:22:42.104Z,87.83
2018-08-12T01:25:11.422Z,86.90
2018-08-12T01:27:40.310Z,86.89
2018-08-12T01:30:11.171Z,86.99
2018-08-12T01:32:40.342Z,87.87
2018-08-12T01:35:10.080Z,86.92
2018-08-12T01:37:38.578Z,86.32
2018-08-12T01:40:09.039Z,87.14
2018-08-12T01:42:37.840Z,86.57
2018-08-12T01:45:06.468Z,87.17
2018-08-12T01:47:34.955Z,86.75
2018-08-12T01:50:03.449Z,86.75
2018-08-12T01:52:31.813Z,86.73
2018-08-12T01:55:00.202Z,85.67
2018-08-12T01:57:28.670Z,85.76
2018-08-12T01:59:57.063Z,86.44
2018-08-12T02:02:25.472Z,86.44
2018-08-12T02:04:53.828Z,85.92
2018-08-12T02:07:22.382Z,86.00
2018-08-12T02:09:50.776Z,86.21
2018-08-12T02:12:19.206Z,86.13
2018-08-12T02:14:47.631Z,87.14
2018-08-12T02:17:16.023Z,86.82
2018-08-12T02:19:44.423Z,86.69
2018-08-12T02:22:12.925Z,86.86
2018-08-12T02:24:41.314Z,86.43
2018-08-12T02:27:09.718Z,86.63
2018-08-12T02:29:38.137Z,86.80
2018-08-12T02:32:06.762Z,87.02
2018-08-12T02:34:35.136Z,86.84
2018-08-12T02:37:03.949Z,86.39
2018-08-12T02:39:32.313Z,87.40
2018-08-12T02:42:00.733Z,86.54
2018-08-12T02:44:29.107Z,86.79
2018-08-12T02:46:57.489Z,86.86
2018-08-12T02:49:25.835Z,87.03
2018-08-12T02:51:54.339Z,86.00
2018-08-12T02:54:22.723Z,85.93
2018-08-12T02:56:51.076Z,86.25
2018-08-12T02:59:19.504Z,85.46
2018-08-12T03:01:47.918Z,86.52
2018-08-12T03:04:16.336Z,86.49
2018-08-12T03:06:44.828Z,85.96
2018-08-12T03:09:13.618Z,86.12
2018-08-12T03:11:42.351Z,86.66
2018-08-12T03:14:11.083Z,86.25
2018-08-12T03:16:39.767Z,87.14
2018-08-12T03:19:08.163Z,86.37
2018-08-12T03:21:36.536Z,86.36
2018-08-12T03:24:04.947Z,86.83
2018-08-12T03:26:33.354Z,86.00
2018-08-12T03:29:01.680Z,86.07
2018-08-12T03:31:29.981Z,86.54
2018-08-12T03:33:58.355Z,85.77
2018-08-12T03:36:26.739Z,86.61
2018-08-12T03:38:55.069Z,85.73
2018-08-12T03:41:23.459Z,86.28
2018-08-12T03:43:51.843Z,86.38
2018-08-12T03:46:20.156Z,86.36
2018-08-12T03:48:48.578Z,86.06
2018-08-12T03:51:16.953Z,85.40
2018-08-12T03:53:45.401Z,84.76
2018-08-12T03:56:13.711Z,85.37
2018-08-12T03:58:42.857Z,84.62
2018-08-12T04:01:11.256Z,84.96
2018-08-12T04:03:39.680Z,84.54
2018-08-12T04:06:08.179Z,84.37
2018-08-12T04:08:36.637Z,84.27
2018-08-12T04:11:05.063Z,83.94
2018-08-12T04:13:33.466Z,83.81
2018-08-12T04:16:01.819Z,84.04
2018-08-12T04:18:30.242Z,83.73
2018-08-12T04:20:58.619Z,84.45
2018-08-12T04:23:27.030Z,83.51
2018-08-12T04:25:55.476Z,83.92
2018-08-12T04:28:23.813Z,84.54
2018-08-12T04:30:52.154Z,83.68
2018-08-12T04:33:20.535Z,82.86
2018-08-12T04:35:48.898Z,84.78
2018-08-12T04:38:17.255Z,84.51
2018-08-12T04:40:45.648Z,83.71
2018-08-12T04:43:14.046Z,84.53
2018-08-12T04:45:42.385Z,83.86
2018-08-12T04:48:10.794Z,83.41
2018-08-12T04:50:39.166Z,84.13
2018-08-12T04:53:07.504Z,85.05
2018-08-12T04:55:35.878Z,84.50
2018-08-12T04:58:04.256Z,83.69
2018-08-12T05:00:32.643Z,84.78
2018-08-12T05:03:01.228Z,82.30
2018-08-12T05:05:29.642Z,83.79
2018-08-12T05:07:57.951Z,83.20
2018-08-12T05:10:26.701Z,80.88
2018-08-12T05:12:55.081Z,82.45
2018-08-12T05:15:23.499Z,81.83
2018-08-12T05:17:51.984Z,81.33
2018-08-12T05:20:20.383Z,81.94
2018-08-12T05:22:48.792Z,79.26
2018-08-12T05:25:17.470Z,80.86
2018-08-12T05:27:46.516Z,79.65
2018-08-12T05:30:15.394Z,77.01
2018-08-12T05:32:44.017Z,78.18
2018-08-12T05:35:13.625Z,77.61
2018-08-12T05:37:42.366Z,77.09
2018-08-12T05:40:13.358Z,78.57
2018-08-12T05:42:41.811Z,77.92
2018-08-12T05:45:10.852Z,77.72
2018-08-12T05:47:39.974Z,77.47
2018-08-12T05:50:10.076Z,77.62
2018-08-12T05:52:38.636Z,77.58
2018-08-12T05:55:07.770Z,76.75
2018-08-12T05:57:36.269Z,76.76
2018-08-12T06:00:05.714Z,74.61
2018-08-12T06:02:34.046Z,72.68
2018-08-12T06:05:02.811Z,74.21
2018-08-12T06:07:32.307Z,70.34
2018-08-12T06:10:00.785Z,71.17
2018-08-12T06:12:29.434Z,66.93
2018-08-12T06:14:57.893Z,68.71
2018-08-12T06:17:26.450Z,68.23
2018-08-12T06:19:55.032Z,69.00
2018-08-12T06:22:23.593Z,68.18
2018-08-12T06:24:52.274Z,66.27
2018-08-12T06:27:20.958Z,66.27
2018-08-12T06:29:49.426Z,64.21
2018-08-12T06:32:17.954Z,62.80
2018-08-12T06:34:46.300Z,61.51
2018-08-12T06:37:14.755Z,62.68
2018-08-12T06:39:43.701Z,61.00
2018-08-12T06:42:12.184Z,61.06
2018-08-12T06:44:40.638Z,59.96
2018-08-12T06:47:09.043Z,61.76
2018-08-12T06:49:37.426Z,59.38
2018-08-12T06:52:05.860Z,57.84
2018-08-12T06:54:34.200Z,57.80
2018-08-12T06:57:02.678Z,58.19
2018-08-12T06:59:31.081Z,59.59
2018-08-12T07:01:59.447Z,58.17
2018-08-12T07:04:28.295Z,57.29
2018-08-12T07:07:01.778Z,56.34
2018-08-12T07:09:30.216Z,57.34
2018-08-12T07:11:58.650Z,55.48
2018-08-12T07:14:27.065Z,55.13
2018-08-12T07:16:55.409Z,54.52
2018-08-12T07:19:23.865Z,54.54
2018-08-12T07:21:52.206Z,56.09
2018-08-12T07:24:20.639Z,53.48
2018-08-12T07:26:49.038Z,54.66
2018-08-12T07:29:17.390Z,52.15
2018-08-12T07:31:46.224Z,51.19
2018-08-12T07:34:14.819Z,52.27
2018-08-12T07:36:43.357Z,53.00
2018-08-12T07:39:11.732Z,51.47
2018-08-12T07:41:40.236Z,50.97
2018-08-12T07:44:08.732Z,50.78
2018-08-12T07:46:37.233Z,50.66
2018-08-12T07:49:05.709Z,49.17
2018-08-12T07:51:34.236Z,49.21
2018-08-12T07:54:02.698Z,50.16
2018-08-12T07:56:31.099Z,48.79
2018-08-12T07:58:59.452Z,50.44
2018-08-12T08:01:28.437Z,46.20
2018-08-12T08:03:56.883Z,47.22
2018-08-12T08:06:25.370Z,45.99
2018-08-12T08:08:53.704Z,47.47
2018-08-12T08:11:22.412Z,47.18
2018-08-12T08:13:50.856Z,46.43
2018-08-12T08:16:19.320Z,46.63
2018-08-12T08:18:48.376Z,46.11
2018-08-12T08:21:18.688Z,46.13
2018-08-12T08:23:47.083Z,45.73
2018-08-12T08:26:15.397Z,47.23
2018-08-12T08:28:43.853Z,47.36
2018-08-12T08:31:12.301Z,46.48
2018-08-12T08:33:40.666Z,47.08
2018-08-12T08:36:09.149Z,45.27
2018-08-12T08:38:37.527Z,49.13
2018-08-12T08:41:06.196Z,45.88
2018-08-12T08:43:34.739Z,45.56
2018-08-12T08:46:03.152Z,45.20
2018-08-12T08:48:31.486Z,47.56
2018-08-12T08:50:59.868Z,46.51
2018-08-12T08:53:28.314Z,48.21
2018-08-12T08:55:56.979Z,45.07
2018-08-12T08:58:27.558Z,45.99
2018-08-12T09:00:56.003Z,45.47
2018-08-12T09:03:24.469Z,45.62
2018-08-12T09:05:52.966Z,45.00
2018-08-12T09:08:21.463Z,46.64
2018-08-12T09:10:49.898Z,45.38
2018-08-12T09:13:18.322Z,44.33
2018-08-12T09:15:46.730Z,42.65
2018-08-12T09:18:15.131Z,42.54
2018-08-12T09:20:43.456Z,43.11
2018-08-12T09:23:11.830Z,42.18
2018-08-12T09:25:40.278Z,41.72
2018-08-12T09:28:08.810Z,41.87
2018-08-12T09:30:37.236Z,41.78
2018-08-12T09:33:05.739Z,42.42
2018-08-12T09:35:34.270Z,41.44
2018-08-12T09:38:02.799Z,41.05
2018-08-12T09:40:31.222Z,39.66
2018-08-12T09:42:59.621Z,39.68
2018-08-12T09:45:28.079Z,40.14
2018-08-12T09:47:56.504Z,40.31
2018-08-12T09:50:24.920Z,39.40
2018-08-12T09:52:54.112Z,39.62
2018-08-12T09:55:22.591Z,38.23
2018-08-12T09:57:51.190Z,39.27
2018-08-12T10:00:25.687Z,39.40
2018-08-12T10:02:55.164Z,39.36
2018-08-12T10:05:23.750Z,38.62
2018-08-12T10:07:52.299Z,38.82
2018-08-12T10:10:20.812Z,38.60
2018-08-12T10:12:49.294Z,39.61
2018-08-12T10:15:18.359Z,39.04
2018-08-12T10:17:49.791Z,37.77
2018-08-12T10:20:18.671Z,37.35
2018-08-12T10:22:47.109Z,37.29
2018-08-12T10:25:15.624Z,38.26
2018-08-12T10:27:44.311Z,37.39
2018-08-12T10:30:13.836Z,38.09
2018-08-12T10:32:42.241Z,38.32
2018-08-12T10:35:12.294Z,37.98
2018-08-12T10:37:41.115Z,38.42
2018-08-12T10:40:11.688Z,37.59
2018-08-12T10:42:40.121Z,37.72
2018-08-12T10:45:09.749Z,37.79
2018-08-12T10:47:38.598Z,35.89
2018-08-12T10:50:09.798Z,36.37
2018-08-12T10:52:39.454Z,37.90
2018-08-12T10:55:08.267Z,36.77
2018-08-12T10:57:36.895Z,35.82
2018-08-12T11:00:09.496Z,37.71
2018-08-12T11:02:37.925Z,35.20
2018-08-12T11:05:06.345Z,35.27
2018-08-12T11:07:34.832Z,35.32
2018-08-12T11:10:03.261Z,34.92
2018-08-12T11:12:31.793Z,34.72
2018-08-12T11:15:00.150Z,34.11
2018-08-12T11:17:28.557Z,36.08
2018-08-12T11:19:57.021Z,35.22
2018-08-12T11:22:25.484Z,34.83
2018-08-12T11:24:53.888Z,34.75
2018-08-12T11:27:22.380Z,34.43
2018-08-12T11:29:50.745Z,34.75
2018-08-12T11:32:19.148Z,35.41
2018-08-12T11:34:47.848Z,35.81
2018-08-12T11:37:16.423Z,34.77
2018-08-12T11:39:45.070Z,34.65
2018-08-12T11:42:13.701Z,32.82
2018-08-12T11:44:42.103Z,34.29
2018-08-12T11:47:11.056Z,32.57
2018-08-12T11:49:39.572Z,32.26
2018-08-12T11:52:08.004Z,31.65
2018-08-12T11:54:36.392Z,31.27
2018-08-12T11:57:05.150Z,31.59
2018-08-12T11:59:33.454Z,32.66
2018-08-12T12:02:02.256Z,31.29
2018-08-12T12:04:30.646Z,31.13
2018-08-12T12:06:59.238Z,31.59
2018-08-12T12:09:27.645Z,32.30
2018-08-12T12:11:56.002Z,33.32
2018-08-12T12:14:24.402Z,33.40
2018-08-12T12:16:52.795Z,35.05
2018-08-12T12:19:21.568Z,33.83
2018-08-12T12:21:50.182Z,34.20
2018-08-12T12:24:19.735Z,33.35
2018-08-12T12:26:49.119Z,33.88
2018-08-12T12:29:17.711Z,33.99
2018-08-12T12:31:46.250Z,33.63
2018-08-12T12:34:15.058Z,33.13
2018-08-12T12:36:43.622Z,32.51
2018-08-12T12:39:12.036Z,32.59
2018-08-12T12:41:40.646Z,30.54
2018-08-12T12:44:09.254Z,30.76
2018-08-12T12:46:37.725Z,32.52
2018-08-12T12:49:06.298Z,31.28
2018-08-12T12:51:34.726Z,30.65
2018-08-12T12:54:03.510Z,31.56
2018-08-12T12:56:33.732Z,31.89
2018-08-12T12:59:02.214Z,30.69
2018-08-12T13:01:30.832Z,30.55
2018-08-12T13:03:59.230Z,32.76
2018-08-12T13:06:27.617Z,31.31
2018-08-12T13:08:55.984Z,30.27
2018-08-12T13:11:24.406Z,30.28
2018-08-12T13:13:52.906Z,31.23
2018-08-12T13:16:21.434Z,30.47
2018-08-12T13:18:50.571Z,31.35
2018-08-12T13:21:18.983Z,30.14
2018-08-12T13:23:47.660Z,29.42
2018-08-12T13:26:16.158Z,29.02
2018-08-12T13:28:44.616Z,30.52
2018-08-12T13:31:12.932Z,30.71
2018-08-12T13:33:41.493Z,30.04
2018-08-12T13:36:09.965Z,30.79
2018-08-12T13:38:38.568Z,31.20
2018-08-12T13:41:07.221Z,29.24
2018-08-12T13:43:35.852Z,30.54
2018-08-12T13:46:04.362Z,29.98
2018-08-12T13:48:32.887Z,29.18
2018-08-12T13:51:01.472Z,29.40
2018-08-12T13:53:29.942Z,30.17
2018-08-12T13:55:58.449Z,30.35
2018-08-12T13:58:26.802Z,30.08
2018-08-12T14:00:55.696Z,29.71
2018-08-12T14:03:24.103Z,29.33
2018-08-12T14:05:52.493Z,30.06
2018-08-12T14:08:20.923Z,29.21
2018-08-12T14:10:49.504Z,30.27
2018-08-12T14:13:17.981Z,30.18
2018-08-12T14:15:46.486Z,30.55
2018-08-12T14:18:14.951Z,30.58
2018-08-12T14:20:43.323Z,30.40
2018-08-12T14:23:11.711Z,30.88
2018-08-12T14:25:40.337Z,30.94
2018-08-12T14:28:08.770Z,31.57
2018-08-12T14:30:37.178Z,30.13
2018-08-12T14:33:05.613Z,29.01
2018-08-12T14:35:40.127Z,28.94
2018-08-12T14:38:08.536Z,30.00
2018-08-12T14:40:36.966Z,30.39
2018-08-12T14:43:05.407Z,28.63
2018-08-12T14:45:35.075Z,29.32
2018-08-12T14:48:03.461Z,30.36
2018-08-12T14:50:31.802Z,29.10
2018-08-12T14:53:00.218Z,29.11
2018-08-12T14:55:28.614Z,28.91
2018-08-12T14:57:56.992Z,29.80
2018-08-12T15:00:25.474Z,29.38
2018-08-12T15:02:53.926Z,29.02
2018-08-12T15:05:22.338Z,28.04
2018-08-12T15:07:51.109Z,28.87
2018-08-12T15:10:20.130Z,29.83
2018-08-12T15:12:48.886Z,29.59
2018-08-12T15:15:18.092Z,29.49
2018-08-12T15:17:47.047Z,29.34
2018-08-12T15:20:16.270Z,28.57
2018-08-12T15:22:44.762Z,27.93
2018-08-12T15:25:17.199Z,28.19
2018-08-12T15:27:45.724Z,29.01
2018-08-12T15:30:14.128Z,28.35
2018-08-12T15:32:42.484Z,28.17
2018-08-12T15:35:10.955Z,28.21
2018-08-12T15:37:39.377Z,27.95
2018-08-12T15:40:09.943Z,28.17
2018-08-12T15:42:38.345Z,28.42
2018-08-12T15:45:09.135Z,28.87
2018-08-12T15:47:37.593Z,28.88
2018-08-12T15:50:07.060Z,29.03
2018-08-12T15:52:35.461Z,30.34
2018-08-12T15:55:03.966Z,29.08
2018-08-12T15:57:32.332Z,29.13
2018-08-12T16:00:00.752Z,30.47
2018-08-12T16:02:29.295Z,29.66
2018-08-12T16:04:57.725Z,28.82
2018-08-12T16:07:26.146Z,28.46
2018-08-12T16:09:54.597Z,27.42
2018-08-12T16:12:23.001Z,27.87
2018-08-12T16:14:51.379Z,28.32
2018-08-12T16:17:19.774Z,28.04
2018-08-12T16:19:48.138Z,28.20
2018-08-12T16:22:16.547Z,28.04
2018-08-12T16:24:44.899Z,27.86
2018-08-12T16:27:13.604Z,27.64
2018-08-12T16:29:41.974Z,27.36
2018-08-12T16:32:10.353Z,27.62
2018-08-12T16:34:39.046Z,28.63
2018-08-12T16:37:07.496Z,28.51
2018-08-12T16:39:35.920Z,29.29
2018-08-12T16:42:04.357Z,28.67
2018-08-12T16:44:32.736Z,29.18
2018-08-12T16:47:01.142Z,29.18
2018-08-12T16:49:29.638Z,28.54
2018-08-12T16:51:57.935Z,28.84
2018-08-12T16:54:26.361Z,29.19
2018-08-12T16:56:54.960Z,28.54
2018-08-12T16:59:23.287Z,29.24
2018-08-12T17:01:51.656Z,29.12
2018-08-12T17:04:20.220Z,30.25
2018-08-12T17:06:48.558Z,28.64
2018-08-12T17:09:16.963Z,27.75
2018-08-12T17:11:45.342Z,27.81
2018-08-12T17:14:13.791Z,28.33
2018-08-12T17:16:42.138Z,29.36
2018-08-12T17:19:10.553Z,28.87
2018-08-12T17:21:38.989Z,29.91
2018-08-12T17:24:07.454Z,31.36
2018-08-12T17:26:35.893Z,29.65
2018-08-12T17:29:04.350Z,29.27
2018-08-12T17:31:32.746Z,29.94
2018-08-12T17:34:01.150Z,28.15
2018-08-12T17:36:29.622Z,28.29
2018-08-12T17:38:58.002Z,28.06
2018-08-12T17:41:26.466Z,29.31
2018-08-12T17:43:54.827Z,29.86
2018-08-12T17:46:23.250Z,29.87
2018-08-12T17:48:51.628Z,29.33
2018-08-12T17:51:20.032Z,29.56
2018-08-12T17:53:48.410Z,29.47
2018-08-12T17:56:16.767Z,29.31
2018-08-12T17:58:45.141Z,28.48
2018-08-12T18:01:13.518Z,28.25
2018-08-12T18:03:41.938Z,28.76
2018-08-12T18:06:10.350Z,29.55
2018-08-12T18:08:38.740Z,29.67
2018-08-12T18:11:07.111Z,30.00
2018-08-12T18:13:35.518Z,29.77
2018-08-12T18:16:03.932Z,30.25
2018-08-12T18:18:32.457Z,33.30
2018-08-12T18:21:01.007Z,33.91
2018-08-12T18:23:29.483Z,34.81
2018-08-12T18:25:57.946Z,33.90
2018-08-12T18:28:26.363Z,34.27
2018-08-12T18:30:54.842Z,35.82
2018-08-12T18:33:23.168Z,35.20
2018-08-12T18:35:51.612Z,35.96
2018-08-12T18:38:20.046Z,34.50
2018-08-12T18:40:48.392Z,34.71
2018-08-12T18:43:16.881Z,36.59
2018-08-12T18:45:45.212Z,36.28
2018-08-12T18:48:13.663Z,35.60
2018-08-12T18:50:42.078Z,37.54
2018-08-12T18:53:10.436Z,37.94
2018-08-12T18:55:39.000Z,37.17
2018-08-12T18:58:07.421Z,37.19
2018-08-12T19:00:35.837Z,39.01
2018-08-12T19:03:04.342Z,38.42
2018-08-12T19:05:32.757Z,37.26
2018-08-12T19:08:01.153Z,38.34
2018-08-12T19:10:29.683Z,37.44
2018-08-12T19:12:58.280Z,37.64
2018-08-12T19:15:26.721Z,37.26
2018-08-12T19:17:55.171Z,37.62
2018-08-12T19:20:23.555Z,37.12
2018-08-12T19:22:51.990Z,37.18
2018-08-12T19:25:20.852Z,37.97
2018-08-12T19:27:49.534Z,37.00
2018-08-12T19:30:17.956Z,37.82
2018-08-12T19:32:46.347Z,37.08
2018-08-12T19:35:14.795Z,36.79
2018-08-12T19:37:44.139Z,37.12
2018-08-12T19:40:12.604Z,37.17
2018-08-12T19:42:41.095Z,36.56
2018-08-12T19:45:10.637Z,36.21
2018-08-12T19:47:39.096Z,36.51
2018-08-12T19:50:08.097Z,36.41
2018-08-12T19:52:37.583Z,38.29
2018-08-12T19:55:06.704Z,38.15
2018-08-12T19:57:35.083Z,38.22
2018-08-12T20:00:05.944Z,37.76
2018-08-12T20:02:34.451Z,37.03
2018-08-12T20:05:02.860Z,39.58
2018-08-12T20:07:31.486Z,39.14
2018-08-12T20:10:00.025Z,40.45
2018-08-12T20:12:28.559Z,39.05
2018-08-12T20:14:57.022Z,41.93
2018-08-12T20:17:25.524Z,42.58
2018-08-12T20:19:53.942Z,42.42
2018-08-12T20:22:22.356Z,43.25
2018-08-12T20:24:52.038Z,43.39
2018-08-12T20:27:20.536Z,44.12
2018-08-12T20:29:49.000Z,44.09
2018-08-12T20:32:17.484Z,43.71
2018-08-12T20:34:46.239Z,42.55
2018-08-12T20:37:15.098Z,41.87
2018-08-12T20:39:43.635Z,42.07
2018-08-12T20:42:12.157Z,42.44
2018-08-12T20:44:40.525Z,44.28
2018-08-12T20:47:08.940Z,44.62
2018-08-12T20:49:37.435Z,43.89
2018-08-12T20:52:06.358Z,45.18
2018-08-12T20:54:35.000Z,44.94
2018-08-12T20:57:03.622Z,45.47
2018-08-12T20:59:32.859Z,44.54
2018-08-12T21:02:01.189Z,47.13
2018-08-12T21:04:29.559Z,45.79
2018-08-12T21:06:58.060Z,45.94
2018-08-12T21:09:27.772Z,47.00
2018-08-12T21:11:56.753Z,47.67
2018-08-12T21:14:25.163Z,47.20
2018-08-12T21:16:53.898Z,48.49
2018-08-12T21:19:22.404Z,48.74
2018-08-12T21:21:50.961Z,47.90
2018-08-12T21:24:19.294Z,49.09
2018-08-12T21:26:47.802Z,48.52
2018-08-12T21:29:16.218Z,48.30
2018-08-12T21:31:44.583Z,47.41
2018-08-12T21:34:12.915Z,45.59
2018-08-12T21:36:41.430Z,44.89
2018-08-12T21:39:11.720Z,48.29
2018-08-12T21:41:40.377Z,47.52
2018-08-12T21:44:08.790Z,48.05
2018-08-12T21:46:37.338Z,47.69
2018-08-12T21:49:06.299Z,48.56
2018-08-12T21:51:35.298Z,48.50
2018-08-12T21:54:04.054Z,47.51
2018-08-12T21:56:32.608Z,50.27
2018-08-12T21:59:00.972Z,50.88
2018-08-12T22:01:29.408Z,50.37
2018-08-12T22:03:57.760Z,52.37
2018-08-12T22:06:26.215Z,52.75
2018-08-12T22:08:54.630Z,51.03
2018-08-12T22:11:23.668Z,50.50
2018-08-12T22:13:52.073Z,51.77
2018-08-12T22:16:20.463Z,49.37
2018-08-12T22:18:48.971Z,49.80
2018-08-12T22:21:17.401Z,49.24
2018-08-12T22:23:45.755Z,48.73
2018-08-12T22:26:14.750Z,50.17
2018-08-12T22:28:43.551Z,48.70
2018-08-12T22:31:11.976Z,50.15
2018-08-12T22:33:40.397Z,50.13
2018-08-12T22:36:08.838Z,51.05
2018-08-12T22:38:37.260Z,52.27
2018-08-12T22:41:06.069Z,51.97
2018-08-12T22:43:34.434Z,52.16
2018-08-12T22:46:02.827Z,51.92
2018-08-12T22:48:31.234Z,52.35
2018-08-12T22:50:59.600Z,52.91
2018-08-12T22:53:27.918Z,54.17
2018-08-12T22:55:56.345Z,54.55
2018-08-12T22:58:24.684Z,54.02
2018-08-12T23:00:53.155Z,54.30
2018-08-12T23:03:21.936Z,55.46
2018-08-12T23:05:50.393Z,55.93
2018-08-12T23:08:18.780Z,55.28
2018-08-12T23:10:47.200Z,54.05
2018-08-12T23:13:15.616Z,55.56
2018-08-12T23:16:25.432Z,56.73
2018-08-12T23:18:53.913Z,56.76
2018-08-12T23:21:22.842Z,57.31
2018-08-12T23:23:52.446Z,55.74
2018-08-12T23:26:22.839Z,57.47
2018-08-12T23:28:51.301Z,56.52
2018-08-12T23:31:19.689Z,56.66
2018-08-12T23:33:48.115Z,57.80
2018-08-12T23:36:16.494Z,57.14
2018-08-12T23:38:44.827Z,57.08
2018-08-12T23:41:13.627Z,57.55
2018-08-12T23:43:42.043Z,56.73
2018-08-12T23:46:11.448Z,58.85
2018-08-12T23:48:39.836Z,58.80
2018-08-12T23:51:08.563Z,57.94
2018-08-12T23:53:36.955Z,58.40
2018-08-12T23:56:05.718Z,56.16
2018-08-12T23:58:36.093Z,57.30
